sensor_id;sensor_type;location;lat;lon;timestamp;pressure;altitude;pressure_sealevel;temperature;humidity
16821;BME280;8527;49.740;6.604;2024-03-29T00:02:00;97653.31;;;7.53;80.42
16821;BME280;8527;49.740;6.604;2024-03-29T00:06:55;97652.28;;;7.47;80.70
16821;BME280;8527;49.740;6.604;2024-03-29T00:11:51;97642.53;;;7.41;81.87
16821;BME280;8527;49.740;6.604;2024-03-29T00:16:53;97622.84;;;7.43;81.23
16821;BME280;8527;49.740;6.604;2024-03-29T00:21:51;97627.94;;;7.45;80.96
16821;BME280;8527;49.740;6.604;2024-03-29T00:26:47;97615.16;;;7.49;81.18
16821;BME280;8527;49.740;6.604;2024-03-29T00:31:43;97597.91;;;7.46;82.32
16821;BME280;8527;49.740;6.604;2024-03-29T00:36:42;97604.97;;;7.39;82.43
16821;BME280;8527;49.740;6.604;2024-03-29T00:41:38;97588.53;;;7.50;82.46
16821;BME280;8527;49.740;6.604;2024-03-29T00:46:36;97602.56;;;7.44;82.37
16821;BME280;8527;49.740;6.604;2024-03-29T00:51:31;97613.13;;;7.44;82.93
16821;BME280;8527;49.740;6.604;2024-03-29T00:56:32;97600.34;;;7.54;82.98
16821;BME280;8527;49.740;6.604;2024-03-29T01:01:28;97588.34;;;7.52;83.88
16821;BME280;8527;49.740;6.604;2024-03-29T01:06:23;97580.63;;;7.57;84.29
16821;BME280;8527;49.740;6.604;2024-03-29T01:11:22;97566.41;;;7.58;85.40
16821;BME280;8527;49.740;6.604;2024-03-29T01:16:20;97547.34;;;7.63;85.38
16821;BME280;8527;49.740;6.604;2024-03-29T01:21:16;97549.38;;;7.60;84.77
16821;BME280;8527;49.740;6.604;2024-03-29T01:26:13;97540.25;;;7.70;85.18
16821;BME280;8527;49.740;6.604;2024-03-29T01:31:09;97577.38;;;7.68;83.68
16821;BME280;8527;49.740;6.604;2024-03-29T01:36:08;97561.56;;;7.68;85.39
16821;BME280;8527;49.740;6.604;2024-03-29T01:41:04;97513.66;;;7.58;86.19
16821;BME280;8527;49.740;6.604;2024-03-29T01:46:00;97538.63;;;7.69;85.72
16821;BME280;8527;49.740;6.604;2024-03-29T01:51:01;97544.69;;;7.69;86.78
16821;BME280;8527;49.740;6.604;2024-03-29T01:56:00;97529.25;;;7.80;86.50
16821;BME280;8527;49.740;6.604;2024-03-29T02:00:58;97522.56;;;7.84;85.15
16821;BME280;8527;49.740;6.604;2024-03-29T02:05:56;97494.38;;;7.64;85.58
16821;BME280;8527;49.740;6.604;2024-03-29T02:10:52;97491.53;;;7.72;81.62
16821;BME280;8527;49.740;6.604;2024-03-29T02:15:51;97490.88;;;7.91;80.12
16821;BME280;8527;49.740;6.604;2024-03-29T02:20:46;97504.25;;;7.96;83.55
16821;BME280;8527;49.740;6.604;2024-03-29T02:25:48;97494.88;;;8.00;85.21
16821;BME280;8527;49.740;6.604;2024-03-29T02:30:44;97511.75;;;7.99;86.86
16821;BME280;8527;49.740;6.604;2024-03-29T02:35:42;97513.41;;;7.86;86.17
16821;BME280;8527;49.740;6.604;2024-03-29T02:40:42;97516.25;;;7.92;87.26
16821;BME280;8527;49.740;6.604;2024-03-29T02:45:43;97520.91;;;7.96;87.09
16821;BME280;8527;49.740;6.604;2024-03-29T02:50:43;97522.31;;;7.92;89.00
16821;BME280;8527;49.740;6.604;2024-03-29T02:55:40;97523.16;;;7.86;87.82
16821;BME280;8527;49.740;6.604;2024-03-29T03:00:39;97533.91;;;7.84;91.12
16821;BME280;8527;49.740;6.604;2024-03-29T03:05:39;97529.06;;;7.81;91.63
16821;BME280;8527;49.740;6.604;2024-03-29T03:10:35;97538.19;;;7.79;94.43
16821;BME280;8527;49.740;6.604;2024-03-29T03:15:51;97549.16;;;7.82;93.02
16821;BME280;8527;49.740;6.604;2024-03-29T03:20:53;97549.34;;;7.87;96.68
16821;BME280;8527;49.740;6.604;2024-03-29T03:25:54;97545.91;;;7.87;97.49
16821;BME280;8527;49.740;6.604;2024-03-29T03:30:51;97547.53;;;7.88;100.00
16821;BME280;8527;49.740;6.604;2024-03-29T03:35:48;97550.97;;;7.75;100.00
16821;BME280;8527;49.740;6.604;2024-03-29T03:40:48;97520.34;;;7.60;100.00
16821;BME280;8527;49.740;6.604;2024-03-29T03:45:51;97517.28;;;7.64;100.00
16821;BME280;8527;49.740;6.604;2024-03-29T03:50:46;97518.53;;;7.68;100.00
16821;BME280;8527;49.740;6.604;2024-03-29T03:55:43;97529.28;;;7.66;100.00
16821;BME280;8527;49.740;6.604;2024-03-29T04:00:41;97544.91;;;7.81;100.00
16821;BME280;8527;49.740;6.604;2024-03-29T04:05:37;97552.31;;;8.18;100.00
16821;BME280;8527;49.740;6.604;2024-03-29T04:10:40;97554.16;;;8.24;100.00
16821;BME280;8527;49.740;6.604;2024-03-29T04:15:41;97547.25;;;8.23;100.00
16821;BME280;8527;49.740;6.604;2024-03-29T04:20:37;97549.88;;;8.23;100.00
16821;BME280;8527;49.740;6.604;2024-03-29T04:25:32;97537.47;;;8.24;100.00
16821;BME280;8527;49.740;6.604;2024-03-29T04:30:28;97524.69;;;8.21;100.00
16821;BME280;8527;49.740;6.604;2024-03-29T04:35:27;97525.88;;;8.25;100.00
16821;BME280;8527;49.740;6.604;2024-03-29T04:40:23;97525.88;;;8.25;100.00
16821;BME280;8527;49.740;6.604;2024-03-29T04:45:19;97530.16;;;8.19;100.00
16821;BME280;8527;49.740;6.604;2024-03-29T04:50:16;97526.72;;;8.25;100.00
16821;BME280;8527;49.740;6.604;2024-03-29T04:55:20;97540.91;;;8.31;100.00
16821;BME280;8527;49.740;6.604;2024-03-29T05:00:16;97551.28;;;8.26;100.00
16821;BME280;8527;49.740;6.604;2024-03-29T05:05:12;97561.06;;;8.25;100.00
16821;BME280;8527;49.740;6.604;2024-03-29T05:10:09;97571.16;;;8.35;100.00
16821;BME280;8527;49.740;6.604;2024-03-29T05:15:12;97573.00;;;8.41;100.00
16821;BME280;8527;49.740;6.604;2024-03-29T05:20:09;97573.00;;;8.41;100.00
16821;BME280;8527;49.740;6.604;2024-03-29T05:25:05;97579.06;;;8.42;100.00
16821;BME280;8527;49.740;6.604;2024-03-29T05:30:02;97578.28;;;8.41;100.00
16821;BME280;8527;49.740;6.604;2024-03-29T05:35:01;97582.31;;;8.44;100.00
16821;BME280;8527;49.740;6.604;2024-03-29T05:39:57;97600.03;;;8.50;100.00
16821;BME280;8527;49.740;6.604;2024-03-29T05:44:54;97598.16;;;8.57;100.00
16821;BME280;8527;49.740;6.604;2024-03-29T05:49:50;97613.81;;;8.59;100.00
16821;BME280;8527;49.740;6.604;2024-03-29T05:54:49;97619.50;;;8.63;100.00
16821;BME280;8527;49.740;6.604;2024-03-29T05:59:48;97625.97;;;8.67;100.00
16821;BME280;8527;49.740;6.604;2024-03-29T06:04:44;97626.19;;;8.65;100.00
16821;BME280;8527;49.740;6.604;2024-03-29T06:09:40;97629.44;;;8.67;100.00
16821;BME280;8527;49.740;6.604;2024-03-29T06:14:38;97624.34;;;8.72;100.00
16821;BME280;8527;49.740;6.604;2024-03-29T06:19:52;97632.66;;;8.76;100.00
16821;BME280;8527;49.740;6.604;2024-03-29T06:24:49;97646.66;;;8.83;100.00
16821;BME280;8527;49.740;6.604;2024-03-29T06:29:50;97648.06;;;8.86;100.00
16821;BME280;8527;49.740;6.604;2024-03-29T06:34:48;97649.66;;;8.94;100.00
16821;BME280;8527;49.740;6.604;2024-03-29T06:39:49;97657.38;;;9.02;100.00
16821;BME280;8527;49.740;6.604;2024-03-29T06:44:54;97657.34;;;9.09;100.00
16821;BME280;8527;49.740;6.604;2024-03-29T06:49:52;97652.59;;;9.18;100.00
16821;BME280;8527;49.740;6.604;2024-03-29T06:54:48;97658.09;;;9.16;100.00
16821;BME280;8527;49.740;6.604;2024-03-29T06:59:43;97646.53;;;9.17;100.00
16821;BME280;8527;49.740;6.604;2024-03-29T07:04:42;97655.44;;;9.23;100.00
16821;BME280;8527;49.740;6.604;2024-03-29T07:09:37;97660.69;;;9.29;100.00
16821;BME280;8527;49.740;6.604;2024-03-29T07:14:37;97653.72;;;9.35;100.00
16821;BME280;8527;49.740;6.604;2024-03-29T07:19:35;97658.66;;;9.32;100.00
16821;BME280;8527;49.740;6.604;2024-03-29T07:24:34;97665.94;;;9.36;100.00
16821;BME280;8527;49.740;6.604;2024-03-29T07:29:30;97665.47;;;9.46;100.00
16821;BME280;8527;49.740;6.604;2024-03-29T07:34:26;97677.22;;;9.57;100.00
16821;BME280;8527;49.740;6.604;2024-03-29T07:39:23;97683.75;;;9.54;100.00
16821;BME280;8527;49.740;6.604;2024-03-29T07:44:24;97681.72;;;9.56;100.00
16821;BME280;8527;49.740;6.604;2024-03-29T07:49:21;97678.41;;;9.61;100.00
16821;BME280;8527;49.740;6.604;2024-03-29T07:54:20;97681.44;;;9.65;100.00
16821;BME280;8527;49.740;6.604;2024-03-29T07:59:16;97688.56;;;9.64;100.00
16821;BME280;8527;49.740;6.604;2024-03-29T08:04:15;97701.97;;;9.69;100.00
16821;BME280;8527;49.740;6.604;2024-03-29T08:09:16;97707.25;;;9.69;100.00
16821;BME280;8527;49.740;6.604;2024-03-29T08:14:12;97717.09;;;9.62;100.00
16821;BME280;8527;49.740;6.604;2024-03-29T08:19:08;97719.34;;;9.59;100.00
16821;BME280;8527;49.740;6.604;2024-03-29T08:24:07;97725.25;;;9.61;100.00
16821;BME280;8527;49.740;6.604;2024-03-29T08:29:05;97719.53;;;9.64;100.00
16821;BME280;8527;49.740;6.604;2024-03-29T08:34:02;97715.59;;;9.73;100.00
16821;BME280;8527;49.740;6.604;2024-03-29T08:39:00;97711.84;;;9.88;100.00
16821;BME280;8527;49.740;6.604;2024-03-29T08:44:01;97719.03;;;9.80;100.00
16821;BME280;8527;49.740;6.604;2024-03-29T08:48:58;97724.28;;;9.87;100.00
16821;BME280;8527;49.740;6.604;2024-03-29T08:53:56;97747.25;;;9.93;100.00
16821;BME280;8527;49.740;6.604;2024-03-29T08:58:52;97756.59;;;9.96;100.00
16821;BME280;8527;49.740;6.604;2024-03-29T09:03:51;97741.34;;;9.91;100.00
16821;BME280;8527;49.740;6.604;2024-03-29T09:08:47;97755.16;;;10.00;100.00
16821;BME280;8527;49.740;6.604;2024-03-29T09:13:43;97751.56;;;10.20;100.00
16821;BME280;8527;49.740;6.604;2024-03-29T09:18:39;97761.00;;;10.34;100.00
16821;BME280;8527;49.740;6.604;2024-03-29T09:23:38;97771.75;;;10.39;100.00
16821;BME280;8527;49.740;6.604;2024-03-29T09:28:35;97760.88;;;10.54;100.00
16821;BME280;8527;49.740;6.604;2024-03-29T09:33:31;97759.91;;;10.67;100.00
16821;BME280;8527;49.740;6.604;2024-03-29T09:38:27;97758.84;;;10.75;100.00
16821;BME280;8527;49.740;6.604;2024-03-29T09:43:28;97747.78;;;10.78;100.00
16821;BME280;8527;49.740;6.604;2024-03-29T09:48:25;97736.66;;;10.88;100.00
16821;BME280;8527;49.740;6.604;2024-03-29T09:53:23;97740.97;;;11.08;100.00
16821;BME280;8527;49.740;6.604;2024-03-29T09:58:24;97724.22;;;11.26;100.00
16821;BME280;8527;49.740;6.604;2024-03-29T10:03:24;97729.06;;;11.60;100.00
16821;BME280;8527;49.740;6.604;2024-03-29T10:08:20;97736.41;;;11.46;100.00
16821;BME280;8527;49.740;6.604;2024-03-29T10:13:17;97746.31;;;11.38;100.00
16821;BME280;8527;49.740;6.604;2024-03-29T10:18:16;97737.72;;;11.55;100.00
16821;BME280;8527;49.740;6.604;2024-03-29T10:23:14;97746.47;;;11.56;100.00
16821;BME280;8527;49.740;6.604;2024-03-29T10:28:11;97798.97;;;11.42;100.00
16821;BME280;8527;49.740;6.604;2024-03-29T10:33:06;97800.81;;;11.22;100.00
16821;BME280;8527;49.740;6.604;2024-03-29T10:38:05;97815.41;;;11.13;100.00
16821;BME280;8527;49.740;6.604;2024-03-29T10:43:01;97806.41;;;11.14;100.00
16821;BME280;8527;49.740;6.604;2024-03-29T10:47:58;97811.13;;;11.12;100.00
16821;BME280;8527;49.740;6.604;2024-03-29T10:52:54;97800.13;;;11.08;100.00
16821;BME280;8527;49.740;6.604;2024-03-29T10:58:03;97797.84;;;11.12;100.00
16821;BME280;8527;49.740;6.604;2024-03-29T11:03:07;97763.50;;;11.17;100.00
16821;BME280;8527;49.740;6.604;2024-03-29T11:08:06;97783.03;;;11.04;100.00
16821;BME280;8527;49.740;6.604;2024-03-29T11:13:11;97807.31;;;11.08;100.00
16821;BME280;8527;49.740;6.604;2024-03-29T11:18:08;97818.03;;;10.94;100.00
16821;BME280;8527;49.740;6.604;2024-03-29T11:23:09;97808.41;;;11.00;100.00
16821;BME280;8527;49.740;6.604;2024-03-29T11:28:10;97805.94;;;11.17;100.00
16821;BME280;8527;49.740;6.604;2024-03-29T11:33:06;97820.13;;;11.30;100.00
16821;BME280;8527;49.740;6.604;2024-03-29T11:38:03;97827.13;;;11.24;100.00
16821;BME280;8527;49.740;6.604;2024-03-29T11:43:00;97828.91;;;11.30;100.00
16821;BME280;8527;49.740;6.604;2024-03-29T11:48:02;97832.28;;;11.37;100.00
16821;BME280;8527;49.740;6.604;2024-03-29T11:53:05;97843.50;;;11.39;100.00
16821;BME280;8527;49.740;6.604;2024-03-29T11:58:01;97862.09;;;11.39;100.00
16821;BME280;8527;49.740;6.604;2024-03-29T12:02:59;97862.69;;;11.42;100.00
16821;BME280;8527;49.740;6.604;2024-03-29T12:07:56;97864.09;;;11.44;100.00
16821;BME280;8527;49.740;6.604;2024-03-29T12:12:55;97865.72;;;11.45;100.00
16821;BME280;8527;49.740;6.604;2024-03-29T12:17:55;97876.22;;;11.33;100.00
16821;BME280;8527;49.740;6.604;2024-03-29T12:22:53;97869.75;;;11.48;100.00
16821;BME280;8527;49.740;6.604;2024-03-29T12:27:49;97879.56;;;11.47;100.00
16821;BME280;8527;49.740;6.604;2024-03-29T12:32:46;97881.53;;;11.33;100.00
16821;BME280;8527;49.740;6.604;2024-03-29T12:37:47;97890.91;;;11.36;100.00
16821;BME280;8527;49.740;6.604;2024-03-29T12:42:46;97894.09;;;11.45;100.00
16821;BME280;8527;49.740;6.604;2024-03-29T12:47:47;97892.69;;;11.42;100.00
16821;BME280;8527;49.740;6.604;2024-03-29T12:52:43;97888.06;;;11.56;100.00
16821;BME280;8527;49.740;6.604;2024-03-29T12:57:43;97876.41;;;11.76;100.00
16821;BME280;8527;49.740;6.604;2024-03-29T13:02:45;97861.25;;;11.95;100.00
16821;BME280;8527;49.740;6.604;2024-03-29T13:07:42;97867.47;;;12.19;100.00
16821;BME280;8527;49.740;6.604;2024-03-29T13:12:37;97860.03;;;12.40;100.00
16821;BME280;8527;49.740;6.604;2024-03-29T13:17:34;97863.97;;;12.37;100.00
16821;BME280;8527;49.740;6.604;2024-03-29T13:22:32;97858.19;;;12.41;100.00
16821;BME280;8527;49.740;6.604;2024-03-29T13:27:28;97859.00;;;12.41;100.00
16821;BME280;8527;49.740;6.604;2024-03-29T13:32:24;97852.53;;;12.61;100.00
16821;BME280;8527;49.740;6.604;2024-03-29T13:37:21;97866.78;;;12.55;100.00
16821;BME280;8527;49.740;6.604;2024-03-29T13:42:20;97885.13;;;12.44;100.00
16821;BME280;8527;49.740;6.604;2024-03-29T13:47:16;97876.53;;;12.30;100.00
16821;BME280;8527;49.740;6.604;2024-03-29T13:52:12;97881.50;;;12.27;100.00
16821;BME280;8527;49.740;6.604;2024-03-29T13:57:11;97881.94;;;12.23;100.00
16821;BME280;8527;49.740;6.604;2024-03-29T14:02:11;97881.13;;;12.23;100.00
16821;BME280;8527;49.740;6.604;2024-03-29T14:07:07;97897.97;;;12.17;100.00
16821;BME280;8527;49.740;6.604;2024-03-29T14:12:04;97910.47;;;11.98;100.00
16821;BME280;8527;49.740;6.604;2024-03-29T14:17:00;97909.66;;;11.97;100.00
16821;BME280;8527;49.740;6.604;2024-03-29T14:22:01;97907.75;;;12.04;100.00
16821;BME280;8527;49.740;6.604;2024-03-29T14:26:59;97918.75;;;12.08;100.00
16821;BME280;8527;49.740;6.604;2024-03-29T14:31:55;97912.47;;;12.02;100.00
16821;BME280;8527;49.740;6.604;2024-03-29T14:36:50;97905.72;;;12.00;100.00
16821;BME280;8527;49.740;6.604;2024-03-29T14:41:49;97904.88;;;12.06;100.00
16821;BME280;8527;49.740;6.604;2024-03-29T14:46:47;97886.28;;;12.06;100.00
16821;BME280;8527;49.740;6.604;2024-03-29T14:51:44;97872.69;;;12.14;100.00
16821;BME280;8527;49.740;6.604;2024-03-29T14:56:43;97874.50;;;12.14;100.00
16821;BME280;8527;49.740;6.604;2024-03-29T15:01:41;97858.19;;;12.10;100.00
16821;BME280;8527;49.740;6.604;2024-03-29T15:06:41;97852.28;;;12.08;100.00
16821;BME280;8527;49.740;6.604;2024-03-29T15:11:39;97875.63;;;12.06;100.00
16821;BME280;8527;49.740;6.604;2024-03-29T15:16:35;97865.44;;;11.84;100.00
16821;BME280;8527;49.740;6.604;2024-03-29T15:21:37;97868.38;;;11.94;100.00
16821;BME280;8527;49.740;6.604;2024-03-29T15:26:33;97879.94;;;11.88;100.00
16821;BME280;8527;49.740;6.604;2024-03-29T15:31:31;97888.69;;;11.89;100.00
16821;BME280;8527;49.740;6.604;2024-03-29T15:36:31;97919.19;;;11.67;100.00
16821;BME280;8527;49.740;6.604;2024-03-29T15:41:30;97934.53;;;11.65;100.00
16821;BME280;8527;49.740;6.604;2024-03-29T15:46:27;97922.22;;;11.71;100.00
16821;BME280;8527;49.740;6.604;2024-03-29T15:51:23;97911.22;;;11.67;100.00
16821;BME280;8527;49.740;6.604;2024-03-29T15:56:19;97896.97;;;11.80;100.00
16821;BME280;8527;49.740;6.604;2024-03-29T16:01:20;97906.22;;;11.78;100.00
16821;BME280;8527;49.740;6.604;2024-03-29T16:06:16;97910.25;;;11.80;100.00
16821;BME280;8527;49.740;6.604;2024-03-29T16:11:12;97928.56;;;11.89;100.00
16821;BME280;8527;49.740;6.604;2024-03-29T16:16:08;97923.25;;;11.89;100.00
16821;BME280;8527;49.740;6.604;2024-03-29T16:21:06;97934.97;;;11.81;100.00
16821;BME280;8527;49.740;6.604;2024-03-29T16:26:02;97918.09;;;11.75;100.00
16821;BME280;8527;49.740;6.604;2024-03-29T16:30:58;97929.38;;;11.71;100.00
16821;BME280;8527;49.740;6.604;2024-03-29T16:35:54;97929.66;;;11.81;100.00
16821;BME280;8527;49.740;6.604;2024-03-29T16:40:52;97935.84;;;11.75;100.00
16821;BME280;8527;49.740;6.604;2024-03-29T16:45:48;97938.22;;;11.64;100.00
16821;BME280;8527;49.740;6.604;2024-03-29T16:50:45;97931.31;;;11.63;100.00
16821;BME280;8527;49.740;6.604;2024-03-29T16:55:41;97931.88;;;11.65;100.00
16821;BME280;8527;49.740;6.604;2024-03-29T17:00:40;97910.06;;;11.63;100.00
16821;BME280;8527;49.740;6.604;2024-03-29T17:05:36;97918.75;;;11.52;100.00
16821;BME280;8527;49.740;6.604;2024-03-29T17:10:32;97910.13;;;11.57;100.00
16821;BME280;8527;49.740;6.604;2024-03-29T17:15:28;97909.44;;;11.43;100.00
16821;BME280;8527;49.740;6.604;2024-03-29T17:20:26;97889.38;;;11.47;100.00
16821;BME280;8527;49.740;6.604;2024-03-29T17:25:22;97891.72;;;11.36;100.00
16821;BME280;8527;49.740;6.604;2024-03-29T17:30:18;97884.97;;;11.78;100.00
16821;BME280;8527;49.740;6.604;2024-03-29T17:35:14;97870.78;;;11.65;100.00
16821;BME280;8527;49.740;6.604;2024-03-29T17:40:13;97855.44;;;11.67;100.00
16821;BME280;8527;49.740;6.604;2024-03-29T17:45:09;97841.41;;;11.79;100.00
16821;BME280;8527;49.740;6.604;2024-03-29T17:50:08;97854.84;;;11.47;100.00
16821;BME280;8527;49.740;6.604;2024-03-29T17:55:05;97881.47;;;11.40;100.00
16821;BME280;8527;49.740;6.604;2024-03-29T18:00:05;97871.69;;;11.40;100.00
16821;BME280;8527;49.740;6.604;2024-03-29T18:05:01;97873.03;;;11.06;100.00
16821;BME280;8527;49.740;6.604;2024-03-29T18:10:02;97871.34;;;11.11;100.00
16821;BME280;8527;49.740;6.604;2024-03-29T18:14:58;97861.63;;;10.80;100.00
16821;BME280;8527;49.740;6.604;2024-03-29T18:19:57;97869.22;;;10.76;100.00
16821;BME280;8527;49.740;6.604;2024-03-29T18:24:53;97856.88;;;10.89;100.00
16821;BME280;8527;49.740;6.604;2024-03-29T18:29:49;97864.78;;;10.95;100.00
16821;BME280;8527;49.740;6.604;2024-03-29T18:34:45;97877.00;;;10.71;100.00
16821;BME280;8527;49.740;6.604;2024-03-29T18:39:43;97872.63;;;10.83;100.00
16821;BME280;8527;49.740;6.604;2024-03-29T18:44:40;97867.69;;;11.13;100.00
16821;BME280;8527;49.740;6.604;2024-03-29T18:49:36;97886.19;;;11.19;100.00
16821;BME280;8527;49.740;6.604;2024-03-29T18:54:32;97863.53;;;11.17;100.00
16821;BME280;8527;49.740;6.604;2024-03-29T18:59:30;97876.53;;;11.25;100.00
16821;BME280;8527;49.740;6.604;2024-03-29T19:04:27;97885.56;;;11.17;100.00
16821;BME280;8527;49.740;6.604;2024-03-29T19:09:23;97878.22;;;11.19;100.00
16821;BME280;8527;49.740;6.604;2024-03-29T19:14:19;97889.66;;;11.20;100.00
16821;BME280;8527;49.740;6.604;2024-03-29T19:19:18;97913.25;;;11.28;100.00
16821;BME280;8527;49.740;6.604;2024-03-29T19:24:17;97903.50;;;11.22;100.00
16821;BME280;8527;49.740;6.604;2024-03-29T19:29:13;97910.94;;;11.13;100.00
16821;BME280;8527;49.740;6.604;2024-03-29T19:34:09;97891.72;;;11.18;100.00
16821;BME280;8527;49.740;6.604;2024-03-29T19:39:08;97891.25;;;11.21;100.00
16821;BME280;8527;49.740;6.604;2024-03-29T19:44:08;97886.47;;;11.11;100.00
16821;BME280;8527;49.740;6.604;2024-03-29T19:49:03;97875.03;;;11.10;100.00
16821;BME280;8527;49.740;6.604;2024-03-29T19:53:59;97855.72;;;11.03;100.00
16821;BME280;8527;49.740;6.604;2024-03-29T19:58:58;97855.13;;;11.01;100.00
16821;BME280;8527;49.740;6.604;2024-03-29T20:03:54;97863.78;;;10.90;100.00
16821;BME280;8527;49.740;6.604;2024-03-29T20:08:49;97840.31;;;10.68;100.00
16821;BME280;8527;49.740;6.604;2024-03-29T20:13:45;97837.38;;;10.51;100.00
16821;BME280;8527;49.740;6.604;2024-03-29T20:18:46;97834.97;;;10.43;100.00
16821;BME280;8527;49.740;6.604;2024-03-29T20:23:42;97832.47;;;10.54;100.00
16821;BME280;8527;49.740;6.604;2024-03-29T20:28:38;97835.22;;;10.41;100.00
16821;BME280;8527;49.740;6.604;2024-03-29T20:33:34;97826.91;;;10.63;100.00
16821;BME280;8527;49.740;6.604;2024-03-29T20:38:33;97823.72;;;10.47;100.00
16821;BME280;8527;49.740;6.604;2024-03-29T20:43:31;97831.13;;;10.71;100.00
16821;BME280;8527;49.740;6.604;2024-03-29T20:48:27;97824.44;;;10.61;100.00
16821;BME280;8527;49.740;6.604;2024-03-29T20:53:23;97817.19;;;10.75;100.00
16821;BME280;8527;49.740;6.604;2024-03-29T20:58:22;97826.13;;;10.55;100.00
16821;BME280;8527;49.740;6.604;2024-03-29T21:03:18;97824.06;;;10.58;100.00
16821;BME280;8527;49.740;6.604;2024-03-29T21:08:29;97824.78;;;10.72;100.00
16821;BME280;8527;49.740;6.604;2024-03-29T21:13:27;97824.44;;;10.61;100.00
16821;BME280;8527;49.740;6.604;2024-03-29T21:18:23;97805.78;;;10.49;100.00
16821;BME280;8527;49.740;6.604;2024-03-29T21:23:19;97805.28;;;10.27;100.00
16821;BME280;8527;49.740;6.604;2024-03-29T21:28:15;97816.84;;;10.39;100.00
16821;BME280;8527;49.740;6.604;2024-03-29T21:33:14;97810.94;;;10.69;100.00
16821;BME280;8527;49.740;6.604;2024-03-29T21:38:09;97858.00;;;10.74;100.00
16821;BME280;8527;49.740;6.604;2024-03-29T21:43:05;97914.81;;;10.60;100.00
16821;BME280;8527;49.740;6.604;2024-03-29T21:48:01;97877.03;;;10.64;100.00
16821;BME280;8527;49.740;6.604;2024-03-29T21:53:00;97868.34;;;10.82;100.00
16821;BME280;8527;49.740;6.604;2024-03-29T21:57:56;97851.69;;;10.75;100.00
16821;BME280;8527;49.740;6.604;2024-03-29T22:02:51;97855.19;;;10.69;100.00
16821;BME280;8527;49.740;6.604;2024-03-29T22:07:53;97862.81;;;10.59;100.00
16821;BME280;8527;49.740;6.604;2024-03-29T22:12:52;97866.06;;;10.61;100.00
16821;BME280;8527;49.740;6.604;2024-03-29T22:17:57;97872.44;;;10.53;100.00
16821;BME280;8527;49.740;6.604;2024-03-29T22:22:53;97878.59;;;10.47;100.00
16821;BME280;8527;49.740;6.604;2024-03-29T22:27:52;97853.97;;;10.33;100.00
16821;BME280;8527;49.740;6.604;2024-03-29T22:32:47;97876.25;;;10.25;100.00
16821;BME280;8527;49.740;6.604;2024-03-29T22:37:43;97874.78;;;10.29;100.00
16821;BME280;8527;49.740;6.604;2024-03-29T22:42:39;97860.75;;;10.28;100.00
16821;BME280;8527;49.740;6.604;2024-03-29T22:47:41;97860.88;;;10.40;100.00
16821;BME280;8527;49.740;6.604;2024-03-29T22:52:37;97857.88;;;10.30;100.00
16821;BME280;8527;49.740;6.604;2024-03-29T22:57:33;97861.72;;;10.34;100.00
16821;BME280;8527;49.740;6.604;2024-03-29T23:02:29;97854.91;;;10.20;100.00
16821;BME280;8527;49.740;6.604;2024-03-29T23:07:27;97851.41;;;10.19;100.00
16821;BME280;8527;49.740;6.604;2024-03-29T23:12:23;97856.00;;;10.05;100.00
16821;BME280;8527;49.740;6.604;2024-03-29T23:17:19;97868.25;;;9.99;100.00
16821;BME280;8527;49.740;6.604;2024-03-29T23:22:15;97860.09;;;10.01;100.00
16821;BME280;8527;49.740;6.604;2024-03-29T23:27:14;97866.59;;;10.05;100.00
16821;BME280;8527;49.740;6.604;2024-03-29T23:32:10;97853.78;;;9.95;100.00
16821;BME280;8527;49.740;6.604;2024-03-29T23:37:06;97853.78;;;9.95;100.00
16821;BME280;8527;49.740;6.604;2024-03-29T23:42:06;97846.41;;;10.04;100.00
16821;BME280;8527;49.740;6.604;2024-03-29T23:47:05;97847.69;;;9.95;100.00
16821;BME280;8527;49.740;6.604;2024-03-29T23:52:01;97846.94;;;9.81;100.00
16821;BME280;8527;49.740;6.604;2024-03-29T23:56:57;97847.13;;;9.79;100.00
